sensor_id;sensor_type;location;lat;lon;timestamp;P1;durP1;ratioP1;P2;durP2;ratioP2
78402;SDS011;67687;43.508;1.504;2023-08-06T00:00:20;6.00;;;2.30;;
78402;SDS011;67687;43.508;1.504;2023-08-06T00:02:47;5.80;;;2.53;;
78402;SDS011;67687;43.508;1.504;2023-08-06T00:05:14;5.35;;;2.15;;
78402;SDS011;67687;43.508;1.504;2023-08-06T00:07:43;6.22;;;2.20;;
78402;SDS011;67687;43.508;1.504;2023-08-06T00:10:09;5.85;;;2.38;;
78402;SDS011;67687;43.508;1.504;2023-08-06T00:12:38;5.57;;;2.38;;
78402;SDS011;67687;43.508;1.504;2023-08-06T00:15:05;6.57;;;2.37;;
78402;SDS011;67687;43.508;1.504;2023-08-06T00:17:33;4.40;;;2.15;;
78402;SDS011;67687;43.508;1.504;2023-08-06T00:20:00;6.70;;;2.45;;
78402;SDS011;67687;43.508;1.504;2023-08-06T00:22:29;8.20;;;2.50;;
78402;SDS011;67687;43.508;1.504;2023-08-06T00:24:56;8.40;;;3.00;;
78402;SDS011;67687;43.508;1.504;2023-08-06T00:27:23;7.27;;;2.40;;
78402;SDS011;67687;43.508;1.504;2023-08-06T00:29:52;6.57;;;2.65;;
78402;SDS011;67687;43.508;1.504;2023-08-06T00:32:18;6.03;;;2.83;;
78402;SDS011;67687;43.508;1.504;2023-08-06T00:34:45;6.82;;;2.53;;
78402;SDS011;67687;43.508;1.504;2023-08-06T00:37:14;6.13;;;2.42;;
78402;SDS011;67687;43.508;1.504;2023-08-06T00:39:41;6.17;;;2.53;;
78402;SDS011;67687;43.508;1.504;2023-08-06T00:42:08;5.63;;;2.47;;
78402;SDS011;67687;43.508;1.504;2023-08-06T00:44:34;7.10;;;2.70;;
78402;SDS011;67687;43.508;1.504;2023-08-06T00:47:03;7.22;;;2.50;;
78402;SDS011;67687;43.508;1.504;2023-08-06T00:49:30;6.03;;;2.80;;
78402;SDS011;67687;43.508;1.504;2023-08-06T00:51:57;6.67;;;2.63;;
78402;SDS011;67687;43.508;1.504;2023-08-06T00:54:23;5.93;;;2.90;;
78402;SDS011;67687;43.508;1.504;2023-08-06T00:56:51;7.10;;;3.00;;
78402;SDS011;67687;43.508;1.504;2023-08-06T00:59:18;9.77;;;2.97;;
78402;SDS011;67687;43.508;1.504;2023-08-06T01:01:45;8.02;;;2.75;;
78402;SDS011;67687;43.508;1.504;2023-08-06T01:04:13;6.53;;;2.60;;
78402;SDS011;67687;43.508;1.504;2023-08-06T01:06:42;7.45;;;2.70;;
78402;SDS011;67687;43.508;1.504;2023-08-06T01:09:14;6.95;;;2.70;;
78402;SDS011;67687;43.508;1.504;2023-08-06T01:11:52;8.18;;;2.60;;
78402;SDS011;67687;43.508;1.504;2023-08-06T01:14:28;7.45;;;2.90;;
78402;SDS011;67687;43.508;1.504;2023-08-06T01:16:57;6.63;;;2.87;;
78402;SDS011;67687;43.508;1.504;2023-08-06T01:19:26;10.90;;;2.78;;
78402;SDS011;67687;43.508;1.504;2023-08-06T01:21:54;11.65;;;2.42;;
78402;SDS011;67687;43.508;1.504;2023-08-06T01:24:21;7.97;;;2.67;;
78402;SDS011;67687;43.508;1.504;2023-08-06T01:26:48;9.77;;;2.88;;
78402;SDS011;67687;43.508;1.504;2023-08-06T01:29:21;9.80;;;2.60;;
78402;SDS011;67687;43.508;1.504;2023-08-06T01:31:50;10.68;;;2.65;;
78402;SDS011;67687;43.508;1.504;2023-08-06T01:34:19;7.75;;;2.30;;
78402;SDS011;67687;43.508;1.504;2023-08-06T01:36:47;8.68;;;2.20;;
78402;SDS011;67687;43.508;1.504;2023-08-06T01:39:15;7.25;;;2.75;;
78402;SDS011;67687;43.508;1.504;2023-08-06T01:41:42;8.30;;;2.30;;
78402;SDS011;67687;43.508;1.504;2023-08-06T01:44:09;7.85;;;2.67;;
78402;SDS011;67687;43.508;1.504;2023-08-06T01:46:35;9.80;;;2.35;;
78402;SDS011;67687;43.508;1.504;2023-08-06T01:49:02;7.25;;;2.10;;
78402;SDS011;67687;43.508;1.504;2023-08-06T01:51:29;9.40;;;1.98;;
78402;SDS011;67687;43.508;1.504;2023-08-06T01:53:55;10.63;;;2.03;;
78402;SDS011;67687;43.508;1.504;2023-08-06T01:56:23;8.25;;;2.30;;
78402;SDS011;67687;43.508;1.504;2023-08-06T01:58:50;10.38;;;2.50;;
78402;SDS011;67687;43.508;1.504;2023-08-06T02:01:17;6.75;;;1.90;;
78402;SDS011;67687;43.508;1.504;2023-08-06T02:03:43;10.15;;;2.55;;
78402;SDS011;67687;43.508;1.504;2023-08-06T02:06:10;8.33;;;1.90;;
78402;SDS011;67687;43.508;1.504;2023-08-06T02:08:37;8.48;;;1.98;;
78402;SDS011;67687;43.508;1.504;2023-08-06T02:11:04;8.32;;;1.80;;
78402;SDS011;67687;43.508;1.504;2023-08-06T02:13:33;8.73;;;2.10;;
78402;SDS011;67687;43.508;1.504;2023-08-06T02:16:00;10.65;;;2.10;;
78402;SDS011;67687;43.508;1.504;2023-08-06T02:18:26;6.33;;;1.93;;
78402;SDS011;67687;43.508;1.504;2023-08-06T02:20:56;11.82;;;2.20;;
78402;SDS011;67687;43.508;1.504;2023-08-06T02:23:23;9.35;;;2.22;;
78402;SDS011;67687;43.508;1.504;2023-08-06T02:25:56;9.13;;;1.90;;
78402;SDS011;67687;43.508;1.504;2023-08-06T02:28:23;14.13;;;2.78;;
78402;SDS011;67687;43.508;1.504;2023-08-06T02:30:51;8.77;;;1.80;;
78402;SDS011;67687;43.508;1.504;2023-08-06T02:33:18;9.13;;;2.13;;
78402;SDS011;67687;43.508;1.504;2023-08-06T02:35:45;10.63;;;1.95;;
78402;SDS011;67687;43.508;1.504;2023-08-06T02:38:12;8.65;;;1.67;;
78402;SDS011;67687;43.508;1.504;2023-08-06T02:40:42;10.30;;;1.92;;
78402;SDS011;67687;43.508;1.504;2023-08-06T02:43:09;9.20;;;1.90;;
78402;SDS011;67687;43.508;1.504;2023-08-06T02:45:36;8.52;;;1.52;;
78402;SDS011;67687;43.508;1.504;2023-08-06T02:48:04;9.80;;;1.90;;
78402;SDS011;67687;43.508;1.504;2023-08-06T02:50:35;11.27;;;1.90;;
78402;SDS011;67687;43.508;1.504;2023-08-06T02:53:04;8.77;;;1.67;;
78402;SDS011;67687;43.508;1.504;2023-08-06T02:55:30;10.93;;;1.77;;
78402;SDS011;67687;43.508;1.504;2023-08-06T02:57:57;9.57;;;1.52;;
78402;SDS011;67687;43.508;1.504;2023-08-06T03:00:24;9.23;;;1.83;;
78402;SDS011;67687;43.508;1.504;2023-08-06T03:02:50;7.93;;;1.65;;
78402;SDS011;67687;43.508;1.504;2023-08-06T03:05:18;10.25;;;1.77;;
78402;SDS011;67687;43.508;1.504;2023-08-06T03:07:45;7.53;;;1.30;;
78402;SDS011;67687;43.508;1.504;2023-08-06T03:10:12;7.47;;;2.05;;
78402;SDS011;67687;43.508;1.504;2023-08-06T03:12:39;10.35;;;2.28;;
78402;SDS011;67687;43.508;1.504;2023-08-06T03:15:06;11.80;;;2.20;;
78402;SDS011;67687;43.508;1.504;2023-08-06T03:17:33;8.57;;;1.90;;
78402;SDS011;67687;43.508;1.504;2023-08-06T03:20:00;6.93;;;1.90;;
78402;SDS011;67687;43.508;1.504;2023-08-06T03:22:28;8.93;;;1.90;;
78402;SDS011;67687;43.508;1.504;2023-08-06T03:24:54;16.42;;;2.40;;
78402;SDS011;67687;43.508;1.504;2023-08-06T03:27:21;8.85;;;1.50;;
78402;SDS011;67687;43.508;1.504;2023-08-06T03:29:48;11.82;;;2.05;;
78402;SDS011;67687;43.508;1.504;2023-08-06T03:32:15;10.47;;;1.87;;
78402;SDS011;67687;43.508;1.504;2023-08-06T03:34:42;9.57;;;1.40;;
78402;SDS011;67687;43.508;1.504;2023-08-06T03:37:09;11.18;;;1.95;;
78402;SDS011;67687;43.508;1.504;2023-08-06T03:39:37;10.35;;;1.80;;
78402;SDS011;67687;43.508;1.504;2023-08-06T03:42:04;9.23;;;1.88;;
78402;SDS011;67687;43.508;1.504;2023-08-06T03:44:31;10.37;;;1.87;;
78402;SDS011;67687;43.508;1.504;2023-08-06T03:46:58;8.48;;;1.85;;
78402;SDS011;67687;43.508;1.504;2023-08-06T03:49:24;12.50;;;2.20;;
78402;SDS011;67687;43.508;1.504;2023-08-06T03:51:51;7.57;;;1.70;;
78402;SDS011;67687;43.508;1.504;2023-08-06T03:54:18;9.75;;;1.58;;
78402;SDS011;67687;43.508;1.504;2023-08-06T03:56:46;11.33;;;1.87;;
78402;SDS011;67687;43.508;1.504;2023-08-06T03:59:13;10.70;;;2.20;;
78402;SDS011;67687;43.508;1.504;2023-08-06T04:01:39;12.23;;;2.15;;
78402;SDS011;67687;43.508;1.504;2023-08-06T04:04:06;10.70;;;1.83;;
78402;SDS011;67687;43.508;1.504;2023-08-06T04:06:33;9.45;;;1.88;;
78402;SDS011;67687;43.508;1.504;2023-08-06T04:08:59;8.70;;;1.90;;
78402;SDS011;67687;43.508;1.504;2023-08-06T04:11:26;9.13;;;1.92;;
78402;SDS011;67687;43.508;1.504;2023-08-06T04:13:54;11.10;;;1.63;;
78402;SDS011;67687;43.508;1.504;2023-08-06T04:16:21;11.52;;;1.75;;
78402;SDS011;67687;43.508;1.504;2023-08-06T04:18:47;12.30;;;1.70;;
78402;SDS011;67687;43.508;1.504;2023-08-06T04:21:14;8.67;;;1.30;;
78402;SDS011;67687;43.508;1.504;2023-08-06T04:23:41;7.28;;;1.17;;
78402;SDS011;67687;43.508;1.504;2023-08-06T04:26:07;10.98;;;1.25;;
78402;SDS011;67687;43.508;1.504;2023-08-06T04:28:34;10.38;;;1.92;;
78402;SDS011;67687;43.508;1.504;2023-08-06T04:31:02;8.85;;;2.28;;
78402;SDS011;67687;43.508;1.504;2023-08-06T04:33:29;10.67;;;1.83;;
78402;SDS011;67687;43.508;1.504;2023-08-06T04:35:56;11.73;;;2.20;;
78402;SDS011;67687;43.508;1.504;2023-08-06T04:38:23;8.05;;;1.88;;
78402;SDS011;67687;43.508;1.504;2023-08-06T04:40:50;10.52;;;1.88;;
78402;SDS011;67687;43.508;1.504;2023-08-06T04:43:17;12.60;;;2.42;;
78402;SDS011;67687;43.508;1.504;2023-08-06T04:45:47;8.70;;;1.70;;
78402;SDS011;67687;43.508;1.504;2023-08-06T04:48:16;11.90;;;1.92;;
78402;SDS011;67687;43.508;1.504;2023-08-06T04:50:43;9.57;;;2.05;;
78402;SDS011;67687;43.508;1.504;2023-08-06T04:53:10;10.82;;;2.05;;
78402;SDS011;67687;43.508;1.504;2023-08-06T04:55:37;9.70;;;1.70;;
78402;SDS011;67687;43.508;1.504;2023-08-06T04:58:04;11.80;;;1.60;;
78402;SDS011;67687;43.508;1.504;2023-08-06T05:00:31;9.90;;;2.00;;
78402;SDS011;67687;43.508;1.504;2023-08-06T05:02:59;8.77;;;1.75;;
78402;SDS011;67687;43.508;1.504;2023-08-06T05:05:27;10.70;;;1.58;;
78402;SDS011;67687;43.508;1.504;2023-08-06T05:07:54;7.88;;;1.88;;
78402;SDS011;67687;43.508;1.504;2023-08-06T05:10:21;12.17;;;1.83;;
78402;SDS011;67687;43.508;1.504;2023-08-06T05:12:50;11.38;;;1.90;;
78402;SDS011;67687;43.508;1.504;2023-08-06T05:15:17;7.93;;;1.52;;
78402;SDS011;67687;43.508;1.504;2023-08-06T05:17:43;8.80;;;1.88;;
78402;SDS011;67687;43.508;1.504;2023-08-06T05:20:11;11.07;;;1.65;;
78402;SDS011;67687;43.508;1.504;2023-08-06T05:22:39;10.10;;;1.83;;
78402;SDS011;67687;43.508;1.504;2023-08-06T05:25:06;13.90;;;1.92;;
78402;SDS011;67687;43.508;1.504;2023-08-06T05:27:33;13.52;;;2.13;;
78402;SDS011;67687;43.508;1.504;2023-08-06T05:30:01;12.80;;;2.33;;
78402;SDS011;67687;43.508;1.504;2023-08-06T05:32:28;10.75;;;1.95;;
78402;SDS011;67687;43.508;1.504;2023-08-06T05:34:55;12.20;;;2.30;;
78402;SDS011;67687;43.508;1.504;2023-08-06T05:37:21;10.65;;;1.70;;
78402;SDS011;67687;43.508;1.504;2023-08-06T05:39:50;11.05;;;2.05;;
78402;SDS011;67687;43.508;1.504;2023-08-06T05:42:16;12.43;;;1.98;;
78402;SDS011;67687;43.508;1.504;2023-08-06T05:44:43;11.23;;;1.50;;
78402;SDS011;67687;43.508;1.504;2023-08-06T05:47:10;12.73;;;1.80;;
78402;SDS011;67687;43.508;1.504;2023-08-06T05:49:37;9.75;;;1.85;;
78402;SDS011;67687;43.508;1.504;2023-08-06T05:52:04;12.00;;;1.60;;
78402;SDS011;67687;43.508;1.504;2023-08-06T05:54:33;10.88;;;2.00;;
78402;SDS011;67687;43.508;1.504;2023-08-06T05:57:01;8.23;;;1.80;;
78402;SDS011;67687;43.508;1.504;2023-08-06T05:59:28;11.17;;;2.03;;
78402;SDS011;67687;43.508;1.504;2023-08-06T06:01:55;9.65;;;1.40;;
78402;SDS011;67687;43.508;1.504;2023-08-06T06:04:22;12.52;;;2.15;;
78402;SDS011;67687;43.508;1.504;2023-08-06T06:06:48;11.18;;;2.10;;
78402;SDS011;67687;43.508;1.504;2023-08-06T06:09:15;10.52;;;2.13;;
78402;SDS011;67687;43.508;1.504;2023-08-06T06:11:42;13.30;;;2.00;;
78402;SDS011;67687;43.508;1.504;2023-08-06T06:14:10;12.23;;;2.22;;
78402;SDS011;67687;43.508;1.504;2023-08-06T06:16:37;12.30;;;1.52;;
78402;SDS011;67687;43.508;1.504;2023-08-06T06:19:03;10.27;;;1.83;;
78402;SDS011;67687;43.508;1.504;2023-08-06T06:21:30;8.63;;;1.63;;
78402;SDS011;67687;43.508;1.504;2023-08-06T06:23:57;9.20;;;1.70;;
78402;SDS011;67687;43.508;1.504;2023-08-06T06:26:24;9.80;;;1.55;;
78402;SDS011;67687;43.508;1.504;2023-08-06T06:28:50;11.48;;;1.98;;
78402;SDS011;67687;43.508;1.504;2023-08-06T06:31:18;10.57;;;2.08;;
78402;SDS011;67687;43.508;1.504;2023-08-06T06:33:45;12.00;;;2.00;;
78402;SDS011;67687;43.508;1.504;2023-08-06T06:36:12;9.50;;;1.60;;
78402;SDS011;67687;43.508;1.504;2023-08-06T06:38:38;10.48;;;1.60;;
78402;SDS011;67687;43.508;1.504;2023-08-06T06:41:05;8.65;;;1.83;;
78402;SDS011;67687;43.508;1.504;2023-08-06T06:43:32;10.88;;;1.90;;
78402;SDS011;67687;43.508;1.504;2023-08-06T06:45:59;9.77;;;1.77;;
78402;SDS011;67687;43.508;1.504;2023-08-06T06:48:28;11.83;;;1.97;;
78402;SDS011;67687;43.508;1.504;2023-08-06T06:50:56;14.90;;;2.08;;
78402;SDS011;67687;43.508;1.504;2023-08-06T06:53:23;12.15;;;2.08;;
78402;SDS011;67687;43.508;1.504;2023-08-06T06:55:52;10.73;;;2.30;;
78402;SDS011;67687;43.508;1.504;2023-08-06T06:58:19;8.00;;;1.38;;
78402;SDS011;67687;43.508;1.504;2023-08-06T07:00:46;14.00;;;1.50;;
78402;SDS011;67687;43.508;1.504;2023-08-06T07:03:13;9.63;;;1.90;;
78402;SDS011;67687;43.508;1.504;2023-08-06T07:05:41;9.93;;;1.70;;
78402;SDS011;67687;43.508;1.504;2023-08-06T07:08:08;9.15;;;1.38;;
78402;SDS011;67687;43.508;1.504;2023-08-06T07:10:35;12.10;;;1.70;;
78402;SDS011;67687;43.508;1.504;2023-08-06T07:13:01;10.27;;;1.70;;
78402;SDS011;67687;43.508;1.504;2023-08-06T07:15:28;8.68;;;1.70;;
78402;SDS011;67687;43.508;1.504;2023-08-06T07:17:55;8.82;;;1.80;;
78402;SDS011;67687;43.508;1.504;2023-08-06T07:20:22;8.93;;;1.83;;
78402;SDS011;67687;43.508;1.504;2023-08-06T07:22:50;8.93;;;1.52;;
78402;SDS011;67687;43.508;1.504;2023-08-06T07:25:16;9.10;;;1.93;;
78402;SDS011;67687;43.508;1.504;2023-08-06T07:27:44;12.20;;;2.20;;
78402;SDS011;67687;43.508;1.504;2023-08-06T07:30:11;12.10;;;2.50;;
78402;SDS011;67687;43.508;1.504;2023-08-06T07:32:37;9.13;;;1.80;;
78402;SDS011;67687;43.508;1.504;2023-08-06T07:35:04;10.27;;;1.90;;
78402;SDS011;67687;43.508;1.504;2023-08-06T07:37:33;10.77;;;2.10;;
78402;SDS011;67687;43.508;1.504;2023-08-06T07:40:01;8.82;;;1.83;;
78402;SDS011;67687;43.508;1.504;2023-08-06T07:42:28;12.30;;;1.90;;
78402;SDS011;67687;43.508;1.504;2023-08-06T07:44:55;10.95;;;2.17;;
78402;SDS011;67687;43.508;1.504;2023-08-06T07:47:22;8.82;;;2.15;;
78402;SDS011;67687;43.508;1.504;2023-08-06T07:49:49;9.03;;;1.57;;
78402;SDS011;67687;43.508;1.504;2023-08-06T07:52:16;11.18;;;2.00;;
78402;SDS011;67687;43.508;1.504;2023-08-06T07:54:42;9.15;;;2.13;;
78402;SDS011;67687;43.508;1.504;2023-08-06T07:57:10;9.65;;;2.00;;
78402;SDS011;67687;43.508;1.504;2023-08-06T07:59:38;7.82;;;1.67;;
78402;SDS011;67687;43.508;1.504;2023-08-06T08:02:05;12.43;;;1.80;;
78402;SDS011;67687;43.508;1.504;2023-08-06T08:04:32;8.98;;;1.70;;
78402;SDS011;67687;43.508;1.504;2023-08-06T08:06:59;10.15;;;1.70;;
78402;SDS011;67687;43.508;1.504;2023-08-06T08:09:25;8.65;;;1.60;;
78402;SDS011;67687;43.508;1.504;2023-08-06T08:11:52;9.43;;;1.77;;
78402;SDS011;67687;43.508;1.504;2023-08-06T08:14:20;9.40;;;1.63;;
78402;SDS011;67687;43.508;1.504;2023-08-06T08:16:47;7.70;;;1.80;;
78402;SDS011;67687;43.508;1.504;2023-08-06T08:19:14;11.80;;;1.90;;
78402;SDS011;67687;43.508;1.504;2023-08-06T08:21:40;8.82;;;1.63;;
78402;SDS011;67687;43.508;1.504;2023-08-06T08:24:07;11.20;;;1.80;;
78402;SDS011;67687;43.508;1.504;2023-08-06T08:26:34;11.57;;;1.90;;
78402;SDS011;67687;43.508;1.504;2023-08-06T08:29:00;9.90;;;1.67;;
78402;SDS011;67687;43.508;1.504;2023-08-06T08:31:28;9.68;;;1.73;;
78402;SDS011;67687;43.508;1.504;2023-08-06T08:33:55;6.93;;;1.95;;
78402;SDS011;67687;43.508;1.504;2023-08-06T08:36:23;9.68;;;1.77;;
78402;SDS011;67687;43.508;1.504;2023-08-06T08:38:50;8.33;;;2.00;;
78402;SDS011;67687;43.508;1.504;2023-08-06T08:41:18;6.32;;;1.27;;
78402;SDS011;67687;43.508;1.504;2023-08-06T08:43:46;10.00;;;1.90;;
78402;SDS011;67687;43.508;1.504;2023-08-06T08:46:13;8.32;;;1.63;;
78402;SDS011;67687;43.508;1.504;2023-08-06T08:48:41;8.52;;;1.88;;
78402;SDS011;67687;43.508;1.504;2023-08-06T08:51:09;9.47;;;1.70;;
78402;SDS011;67687;43.508;1.504;2023-08-06T08:53:36;9.10;;;1.80;;
78402;SDS011;67687;43.508;1.504;2023-08-06T08:56:04;9.23;;;1.90;;
78402;SDS011;67687;43.508;1.504;2023-08-06T08:58:32;7.68;;;1.80;;
78402;SDS011;67687;43.508;1.504;2023-08-06T09:00:58;8.65;;;1.70;;
78402;SDS011;67687;43.508;1.504;2023-08-06T09:03:25;7.40;;;1.90;;
78402;SDS011;67687;43.508;1.504;2023-08-06T09:05:54;9.45;;;1.33;;
78402;SDS011;67687;43.508;1.504;2023-08-06T09:08:23;7.85;;;1.90;;
78402;SDS011;67687;43.508;1.504;2023-08-06T09:10:54;9.35;;;1.50;;
78402;SDS011;67687;43.508;1.504;2023-08-06T09:13:21;6.75;;;1.33;;
78402;SDS011;67687;43.508;1.504;2023-08-06T09:15:48;9.03;;;1.50;;
78402;SDS011;67687;43.508;1.504;2023-08-06T09:18:21;9.93;;;1.52;;
78402;SDS011;67687;43.508;1.504;2023-08-06T09:20:51;7.50;;;1.60;;
78402;SDS011;67687;43.508;1.504;2023-08-06T09:23:19;9.70;;;1.90;;
78402;SDS011;67687;43.508;1.504;2023-08-06T09:25:46;7.00;;;1.60;;
78402;SDS011;67687;43.508;1.504;2023-08-06T09:28:13;7.80;;;1.50;;
78402;SDS011;67687;43.508;1.504;2023-08-06T09:30:40;11.48;;;1.50;;
78402;SDS011;67687;43.508;1.504;2023-08-06T09:33:08;6.93;;;1.63;;
78402;SDS011;67687;43.508;1.504;2023-08-06T09:35:36;10.00;;;1.95;;
78402;SDS011;67687;43.508;1.504;2023-08-06T09:38:06;10.18;;;1.92;;
78402;SDS011;67687;43.508;1.504;2023-08-06T09:40:36;7.83;;;1.80;;
78402;SDS011;67687;43.508;1.504;2023-08-06T09:43:03;9.35;;;1.60;;
78402;SDS011;67687;43.508;1.504;2023-08-06T09:45:31;6.65;;;1.42;;
78402;SDS011;67687;43.508;1.504;2023-08-06T09:47:59;9.50;;;1.50;;
78402;SDS011;67687;43.508;1.504;2023-08-06T09:50:28;8.55;;;1.50;;
78402;SDS011;67687;43.508;1.504;2023-08-06T09:52:55;7.83;;;1.70;;
78402;SDS011;67687;43.508;1.504;2023-08-06T09:55:23;8.98;;;1.50;;
78402;SDS011;67687;43.508;1.504;2023-08-06T09:57:51;8.63;;;1.83;;
78402;SDS011;67687;43.508;1.504;2023-08-06T10:00:18;8.52;;;1.63;;
78402;SDS011;67687;43.508;1.504;2023-08-06T10:02:45;9.05;;;1.60;;
78402;SDS011;67687;43.508;1.504;2023-08-06T10:05:13;7.83;;;1.60;;
78402;SDS011;67687;43.508;1.504;2023-08-06T10:07:41;7.53;;;1.20;;
78402;SDS011;67687;43.508;1.504;2023-08-06T10:10:09;6.30;;;1.92;;
78402;SDS011;67687;43.508;1.504;2023-08-06T10:12:37;5.65;;;1.50;;
78402;SDS011;67687;43.508;1.504;2023-08-06T10:15:08;9.45;;;1.50;;
78402;SDS011;67687;43.508;1.504;2023-08-06T10:17:36;6.87;;;1.70;;
78402;SDS011;67687;43.508;1.504;2023-08-06T10:20:04;11.23;;;1.65;;
78402;SDS011;67687;43.508;1.504;2023-08-06T10:22:32;7.72;;;1.63;;
78402;SDS011;67687;43.508;1.504;2023-08-06T10:24:59;7.53;;;1.90;;
78402;SDS011;67687;43.508;1.504;2023-08-06T10:27:30;9.10;;;1.63;;
78402;SDS011;67687;43.508;1.504;2023-08-06T10:32:51;8.05;;;1.83;;
78402;SDS011;67687;43.508;1.504;2023-08-06T10:35:28;6.78;;;1.40;;
78402;SDS011;67687;43.508;1.504;2023-08-06T10:37:59;6.68;;;1.95;;
78402;SDS011;67687;43.508;1.504;2023-08-06T10:40:26;8.18;;;1.65;;
78402;SDS011;67687;43.508;1.504;2023-08-06T10:42:54;5.03;;;1.40;;
78402;SDS011;67687;43.508;1.504;2023-08-06T10:45:21;6.78;;;1.50;;
78402;SDS011;67687;43.508;1.504;2023-08-06T10:47:55;8.80;;;1.60;;
78402;SDS011;67687;43.508;1.504;2023-08-06T10:50:22;8.18;;;1.90;;
78402;SDS011;67687;43.508;1.504;2023-08-06T10:52:49;7.93;;;1.80;;
78402;SDS011;67687;43.508;1.504;2023-08-06T10:55:22;8.40;;;1.70;;
78402;SDS011;67687;43.508;1.504;2023-08-06T10:57:49;10.27;;;2.05;;
78402;SDS011;67687;43.508;1.504;2023-08-06T11:00:16;8.70;;;1.73;;
78402;SDS011;67687;43.508;1.504;2023-08-06T11:02:42;8.77;;;1.55;;
78402;SDS011;67687;43.508;1.504;2023-08-06T11:05:11;8.00;;;1.58;;
78402;SDS011;67687;43.508;1.504;2023-08-06T11:07:38;7.93;;;1.80;;
78402;SDS011;67687;43.508;1.504;2023-08-06T11:10:05;9.45;;;1.55;;
78402;SDS011;67687;43.508;1.504;2023-08-06T11:12:33;6.53;;;1.45;;
78402;SDS011;67687;43.508;1.504;2023-08-06T11:15:00;7.05;;;1.70;;
78402;SDS011;67687;43.508;1.504;2023-08-06T11:17:28;6.10;;;1.75;;
78402;SDS011;67687;43.508;1.504;2023-08-06T11:19:55;5.73;;;1.77;;
78402;SDS011;67687;43.508;1.504;2023-08-06T11:22:23;7.15;;;1.48;;
78402;SDS011;67687;43.508;1.504;2023-08-06T11:24:50;7.38;;;1.60;;
78402;SDS011;67687;43.508;1.504;2023-08-06T11:27:16;7.70;;;2.00;;
78402;SDS011;67687;43.508;1.504;2023-08-06T11:29:43;6.72;;;1.80;;
78402;SDS011;67687;43.508;1.504;2023-08-06T11:32:10;5.77;;;1.50;;
78402;SDS011;67687;43.508;1.504;2023-08-06T11:34:38;7.25;;;1.75;;
78402;SDS011;67687;43.508;1.504;2023-08-06T11:37:05;8.27;;;1.98;;
78402;SDS011;67687;43.508;1.504;2023-08-06T11:39:34;6.95;;;2.20;;
78402;SDS011;67687;43.508;1.504;2023-08-06T11:42:02;7.38;;;1.80;;
78402;SDS011;67687;43.508;1.504;2023-08-06T11:44:29;6.57;;;1.70;;
78402;SDS011;67687;43.508;1.504;2023-08-06T11:46:57;6.30;;;1.70;;
78402;SDS011;67687;43.508;1.504;2023-08-06T11:49:39;7.80;;;1.70;;
78402;SDS011;67687;43.508;1.504;2023-08-06T11:52:10;7.20;;;1.85;;
78402;SDS011;67687;43.508;1.504;2023-08-06T11:54:39;8.20;;;1.55;;
78402;SDS011;67687;43.508;1.504;2023-08-06T11:57:05;8.33;;;1.60;;
78402;SDS011;67687;43.508;1.504;2023-08-06T11:59:33;6.15;;;1.50;;
78402;SDS011;67687;43.508;1.504;2023-08-06T12:02:00;5.55;;;1.67;;
78402;SDS011;67687;43.508;1.504;2023-08-06T12:04:27;7.10;;;1.63;;
78402;SDS011;67687;43.508;1.504;2023-08-06T12:06:54;7.57;;;1.52;;
78402;SDS011;67687;43.508;1.504;2023-08-06T12:09:21;6.20;;;1.50;;
78402;SDS011;67687;43.508;1.504;2023-08-06T12:11:49;5.50;;;1.70;;
78402;SDS011;67687;43.508;1.504;2023-08-06T12:14:16;5.90;;;1.63;;
78402;SDS011;67687;43.508;1.504;2023-08-06T12:16:43;6.55;;;1.58;;
78402;SDS011;67687;43.508;1.504;2023-08-06T12:19:09;4.55;;;1.30;;
78402;SDS011;67687;43.508;1.504;2023-08-06T12:21:36;7.60;;;1.53;;
78402;SDS011;67687;43.508;1.504;2023-08-06T12:24:03;5.32;;;1.40;;
78402;SDS011;67687;43.508;1.504;2023-08-06T12:26:31;5.05;;;1.60;;
78402;SDS011;67687;43.508;1.504;2023-08-06T12:28:59;5.90;;;1.40;;
78402;SDS011;67687;43.508;1.504;2023-08-06T12:31:26;5.38;;;1.50;;
78402;SDS011;67687;43.508;1.504;2023-08-06T12:33:52;4.93;;;1.47;;
78402;SDS011;67687;43.508;1.504;2023-08-06T12:36:19;6.97;;;1.70;;
78402;SDS011;67687;43.508;1.504;2023-08-06T12:38:46;5.10;;;1.40;;
78402;SDS011;67687;43.508;1.504;2023-08-06T12:41:13;6.70;;;1.35;;
78402;SDS011;67687;43.508;1.504;2023-08-06T12:43:39;5.55;;;1.35;;
78402;SDS011;67687;43.508;1.504;2023-08-06T12:46:08;6.73;;;1.67;;
78402;SDS011;67687;43.508;1.504;2023-08-06T12:48:35;7.13;;;1.60;;
78402;SDS011;67687;43.508;1.504;2023-08-06T12:51:02;6.15;;;1.40;;
78402;SDS011;67687;43.508;1.504;2023-08-06T12:53:28;6.60;;;1.30;;
78402;SDS011;67687;43.508;1.504;2023-08-06T12:55:55;5.03;;;1.50;;
78402;SDS011;67687;43.508;1.504;2023-08-06T12:58:22;4.87;;;1.43;;
78402;SDS011;67687;43.508;1.504;2023-08-06T13:00:48;5.68;;;1.60;;
78402;SDS011;67687;43.508;1.504;2023-08-06T13:03:17;5.60;;;1.50;;
78402;SDS011;67687;43.508;1.504;2023-08-06T13:05:43;5.75;;;1.50;;
78402;SDS011;67687;43.508;1.504;2023-08-06T13:08:10;4.35;;;1.23;;
78402;SDS011;67687;43.508;1.504;2023-08-06T13:10:37;6.53;;;1.70;;
78402;SDS011;67687;43.508;1.504;2023-08-06T13:13:03;6.40;;;1.42;;
78402;SDS011;67687;43.508;1.504;2023-08-06T13:15:30;5.00;;;1.38;;
78402;SDS011;67687;43.508;1.504;2023-08-06T13:17:57;3.95;;;1.17;;
78402;SDS011;67687;43.508;1.504;2023-08-06T13:20:25;5.28;;;1.23;;
78402;SDS011;67687;43.508;1.504;2023-08-06T13:22:52;4.73;;;1.33;;
78402;SDS011;67687;43.508;1.504;2023-08-06T13:25:19;5.30;;;1.40;;
78402;SDS011;67687;43.508;1.504;2023-08-06T13:27:46;5.65;;;1.40;;
78402;SDS011;67687;43.508;1.504;2023-08-06T13:30:12;6.60;;;1.38;;
78402;SDS011;67687;43.508;1.504;2023-08-06T13:32:39;5.55;;;1.17;;
78402;SDS011;67687;43.508;1.504;2023-08-06T13:35:06;4.70;;;1.40;;
78402;SDS011;67687;43.508;1.504;2023-08-06T13:37:34;4.28;;;1.40;;
78402;SDS011;67687;43.508;1.504;2023-08-06T13:40:01;5.53;;;1.40;;
78402;SDS011;67687;43.508;1.504;2023-08-06T13:42:28;5.43;;;1.33;;
78402;SDS011;67687;43.508;1.504;2023-08-06T13:44:55;9.60;;;1.65;;
78402;SDS011;67687;43.508;1.504;2023-08-06T13:47:27;5.03;;;1.40;;
78402;SDS011;67687;43.508;1.504;2023-08-06T13:49:54;5.47;;;1.48;;
78402;SDS011;67687;43.508;1.504;2023-08-06T13:52:20;5.65;;;1.50;;
78402;SDS011;67687;43.508;1.504;2023-08-06T13:54:49;5.85;;;1.55;;
78402;SDS011;67687;43.508;1.504;2023-08-06T13:57:15;6.15;;;1.52;;
78402;SDS011;67687;43.508;1.504;2023-08-06T13:59:43;5.10;;;1.60;;
78402;SDS011;67687;43.508;1.504;2023-08-06T14:02:10;5.90;;;1.45;;
78402;SDS011;67687;43.508;1.504;2023-08-06T14:04:37;6.25;;;1.50;;
78402;SDS011;67687;43.508;1.504;2023-08-06T14:07:05;5.85;;;1.40;;
78402;SDS011;67687;43.508;1.504;2023-08-06T14:09:31;4.80;;;1.23;;
78402;SDS011;67687;43.508;1.504;2023-08-06T14:12:00;4.87;;;1.20;;
78402;SDS011;67687;43.508;1.504;2023-08-06T14:14:28;5.40;;;1.50;;
78402;SDS011;67687;43.508;1.504;2023-08-06T14:16:54;5.35;;;1.27;;
78402;SDS011;67687;43.508;1.504;2023-08-06T14:19:21;5.22;;;1.23;;
78402;SDS011;67687;43.508;1.504;2023-08-06T14:21:48;7.20;;;1.38;;
78402;SDS011;67687;43.508;1.504;2023-08-06T14:24:15;5.17;;;1.40;;
78402;SDS011;67687;43.508;1.504;2023-08-06T14:26:42;5.38;;;1.40;;
78402;SDS011;67687;43.508;1.504;2023-08-06T14:29:10;6.70;;;1.45;;
78402;SDS011;67687;43.508;1.504;2023-08-06T14:31:38;6.05;;;1.50;;
78402;SDS011;67687;43.508;1.504;2023-08-06T14:34:05;6.88;;;1.52;;
78402;SDS011;67687;43.508;1.504;2023-08-06T14:36:32;6.57;;;1.30;;
78402;SDS011;67687;43.508;1.504;2023-08-06T14:38:58;6.35;;;1.45;;
78402;SDS011;67687;43.508;1.504;2023-08-06T14:41:25;5.72;;;1.40;;
78402;SDS011;67687;43.508;1.504;2023-08-06T14:43:52;5.82;;;1.40;;
78402;SDS011;67687;43.508;1.504;2023-08-06T14:46:20;4.70;;;1.30;;